»·PEaware :: N442WF KSBP-KLAX

N442WF :: KSBP-KLAX

FLIGHT INFORMATION

Flight Status: Arrived
Operator: Privately registered:
United States
More flights under this callsign
Pilot: Brandon F. (14792)
Aircraft: BEECH AIRCRAFT BEECH AIRLINER
(B190)
More flights by this aircraft type
Origin: KSBP San Luis Co Regl
United States
Destination: KLAX Los Angeles Intl
United States
More flights between these airports :: More routes between these airports
Route: +RZS SADDE8
File this flight plan on PilotEdge
Remarks:
Altitude:
(Current/Filed)
19,000ft
Speed:
(Current/Filed)
275kts
Departed: 06-Feb-19 04:15 PM
Arrived: 06-Feb-19 05:06 PM
Distance/Time
Traveled:
136nm/0:50
Distance/Time
To Go:
Arrived

Flight Plot

Page will automatically refresh every two minutes.

Flight plan parsing failed; only flown route is shown


Map Options




Map Legend


Flown Route
Filed Route
Departure Airport
Arrival Airport
Navaid (VOR, NDB)
Fix

Horizontal Profiles

Position Reports

Time Latitude Longitude Heading Altitude Ground
Speed
06-Feb-19 15:51 35.237953 -120.638277 63 217ft 0kts
06-Feb-19 15:52 35.237953 -120.638277 63 217ft 0kts
06-Feb-19 15:53 35.237953 -120.638277 63 217ft 0kts
06-Feb-19 15:54 35.237953 -120.638277 63 217ft 0kts
06-Feb-19 15:55 35.237953 -120.638277 63 217ft 0kts
06-Feb-19 15:56 35.237953 -120.638277 63 217ft 0kts
06-Feb-19 15:57 35.237953 -120.638277 63 217ft 0kts
06-Feb-19 15:58 35.237953 -120.638277 63 217ft 0kts
06-Feb-19 15:59 35.237953 -120.638277 63 217ft 0kts
06-Feb-19 16:00 35.237953 -120.638277 63 217ft 0kts
06-Feb-19 16:01 35.237999 -120.638163 62 217ft 0kts
06-Feb-19 16:02 35.237999 -120.638163 62 217ft 0kts
06-Feb-19 16:03 35.237999 -120.638163 62 217ft 0kts
06-Feb-19 16:04 35.237999 -120.638163 62 217ft 0kts
06-Feb-19 16:05 35.237999 -120.638163 62 217ft 0kts
06-Feb-19 16:06 35.237999 -120.638163 62 217ft 0kts
06-Feb-19 16:07 35.237454 -120.638468 201 217ft 5kts
06-Feb-19 16:08 35.236261 -120.637178 127 217ft 0kts
06-Feb-19 16:09 35.236261 -120.637178 127 217ft 0kts
06-Feb-19 16:10 35.234950 -120.634918 125 217ft 21kts
06-Feb-19 16:11 35.233450 -120.632355 152 217ft 0kts
06-Feb-19 16:12 35.233220 -120.632311 210 217ft 0kts
06-Feb-19 16:13 35.233113 -120.632398 215 217ft 5kts
06-Feb-19 16:14 35.238405 -120.642668 301 218ft 132kts
06-Feb-19 16:15 35.256575 -120.680984 299 2724ft 133kts
06-Feb-19 16:16 35.279143 -120.718863 326 4884ft 153kts
06-Feb-19 16:17 35.294818 -120.687327 132 6696ft 160kts
06-Feb-19 16:18 35.263100 -120.648013 138 8009ft 181kts
06-Feb-19 16:19 35.228065 -120.607308 138 9375ft 168kts
06-Feb-19 16:20 35.192880 -120.566063 137 10895ft 183kts
06-Feb-19 16:21 35.148792 -120.514364 137 11009ft 243kts
06-Feb-19 16:22 35.098480 -120.455361 137 11004ft 253kts
06-Feb-19 16:23 35.047403 -120.395615 137 11004ft 254kts
06-Feb-19 16:24 34.996208 -120.335856 137 11002ft 254kts
06-Feb-19 16:25 34.944883 -120.276064 137 11002ft 254kts
06-Feb-19 16:26 34.893686 -120.216519 137 11004ft 255kts
06-Feb-19 16:27 34.842055 -120.156591 137 11003ft 257kts
06-Feb-19 16:28 34.806085 -120.114903 137 11003ft 257kts
06-Feb-19 16:29 34.762336 -120.064268 137 11003ft 257kts
06-Feb-19 16:30 34.710401 -120.004258 137 11003ft 257kts
06-Feb-19 16:31 34.665237 -119.952162 137 11003ft 257kts
06-Feb-19 16:32 34.613413 -119.892483 137 11003ft 257kts
06-Feb-19 16:33 34.561466 -119.832771 137 11003ft 257kts
06-Feb-19 16:34 34.514571 -119.778851 135 11001ft 257kts
06-Feb-19 16:35 34.473648 -119.707505 124 11003ft 258kts
06-Feb-19 16:36 34.433995 -119.634667 124 11003ft 258kts
06-Feb-19 16:37 34.394333 -119.561840 124 11004ft 258kts
06-Feb-19 16:38 34.354602 -119.489025 124 11004ft 258kts
06-Feb-19 16:39 34.314808 -119.416242 124 11004ft 258kts
06-Feb-19 16:40 34.275021 -119.343617 124 11003ft 258kts
06-Feb-19 16:41 34.235187 -119.271059 124 11003ft 258kts
06-Feb-19 16:42 34.196133 -119.197948 123 11003ft 258kts
06-Feb-19 16:43 34.156631 -119.125245 124 11003ft 258kts
06-Feb-19 16:44 34.116818 -119.051272 114 10538ft 272kts
06-Feb-19 16:45 34.092314 -118.964497 108 10001ft 267kts
06-Feb-19 16:46 34.069859 -118.880300 108 10003ft 261kts
06-Feb-19 16:47 34.047559 -118.797075 108 10003ft 260kts
06-Feb-19 16:48 34.033892 -118.711184 96 9949ft 263kts
06-Feb-19 16:49 34.025618 -118.622022 96 8895ft 269kts
06-Feb-19 16:50 34.017183 -118.532097 96 8009ft 263kts
06-Feb-19 16:51 33.998900 -118.450763 124 7557ft 260kts
06-Feb-19 16:52 34.000500 -118.364264 84 6536ft 245kts
06-Feb-19 16:53 34.006951 -118.306524 82 6005ft 168kts
06-Feb-19 16:54 34.014221 -118.242685 82 6007ft 206kts
06-Feb-19 16:55 34.022179 -118.171690 82 6007ft 223kts
06-Feb-19 16:56 34.030563 -118.095876 82 6003ft 230kts
06-Feb-19 16:57 34.019672 -118.027962 166 6007ft 221kts
06-Feb-19 16:58 33.960982 -118.035703 231 5904ft 218kts
06-Feb-19 16:59 33.965077 -118.104004 268 5016ft 216kts
06-Feb-19 17:00 33.959095 -118.174628 262 3742ft 199kts
06-Feb-19 17:01 33.953220 -118.229990 261 2586ft 134kts
06-Feb-19 17:02 33.948965 -118.272614 262 1950ft 128kts
06-Feb-19 17:03 33.944588 -118.315281 262 1240ft 127kts
06-Feb-19 17:04 33.940126 -118.357764 261 549ft 127kts
06-Feb-19 17:05 33.936275 -118.392075 262 104ft 39kts
06-Feb-19 17:06 33.934722 -118.393867 181 105ft 10kts
06-Feb-19 17:07 33.933861 -118.394424 266 106ft 0kts
06-Feb-19 17:08 33.933861 -118.394424 266 106ft 0kts

Navigation Log

Ident Type
Flight plan parsing failed, navigation log unavailable